Terminal Aerodrome Forecast
Issued by NWS

Home | Current Version | Previous Version | Text Only | Print | Product List | Glossary On
Versions: 1 2 3 4 5 6 7 8 9 10 11 12 13 14 15
438
FTUS44 KBMX 191720
TAFMGM
TAF
KMGM 191720Z 1918/2018 32005KT P6SM SCT040
     FM200100 22004KT P6SM FEW250
     FM200900 07001KT 5SM BR SKC
     FM201400 06002KT P6SM SKC=

USA.gov is the U.S. government's official web portal to all federal, state and local government web resources and services.